sensor_id;sensor_type;location;lat;lon;timestamp;pressure;altitude;pressure_sealevel;temperature;humidity
37610;BME280;23457;51.966;8.230;2023-03-19T00:00:37;100505.66;;;11.12;100.00
37610;BME280;23457;51.966;8.230;2023-03-19T00:03:04;100507.41;;;11.13;100.00
37610;BME280;23457;51.966;8.230;2023-03-19T00:05:31;100509.06;;;11.07;100.00
37610;BME280;23457;51.966;8.230;2023-03-19T00:07:58;100501.19;;;11.02;100.00
37610;BME280;23457;51.966;8.230;2023-03-19T00:10:24;100510.69;;;10.97;100.00
37610;BME280;23457;51.966;8.230;2023-03-19T00:12:51;100505.53;;;11.00;100.00
37610;BME280;23457;51.966;8.230;2023-03-19T00:15:17;100507.25;;;11.00;100.00
37610;BME280;23457;51.966;8.230;2023-03-19T00:17:44;100508.03;;;10.93;100.00
37610;BME280;23457;51.966;8.230;2023-03-19T00:20:14;100506.28;;;10.89;100.00
37610;BME280;23457;51.966;8.230;2023-03-19T00:22:40;100506.13;;;10.78;100.00
37610;BME280;23457;51.966;8.230;2023-03-19T00:25:08;100507.78;;;10.70;100.00
37610;BME280;23457;51.966;8.230;2023-03-19T00:27:38;100513.84;;;10.70;100.00
37610;BME280;23457;51.966;8.230;2023-03-19T00:30:06;100519.88;;;10.68;100.00
37610;BME280;23457;51.966;8.230;2023-03-19T00:32:33;100520.56;;;10.55;100.00
37610;BME280;23457;51.966;8.230;2023-03-19T00:35:01;100512.00;;;10.62;100.00
37610;BME280;23457;51.966;8.230;2023-03-19T00:37:29;100519.66;;;10.51;100.00
37610;BME280;23457;51.966;8.230;2023-03-19T00:39:55;100524.84;;;10.50;100.00
37610;BME280;23457;51.966;8.230;2023-03-19T00:42:22;100524.00;;;10.51;100.00
37610;BME280;23457;51.966;8.230;2023-03-19T00:44:49;100520.53;;;10.50;100.00
37610;BME280;23457;51.966;8.230;2023-03-19T00:47:16;100516.88;;;10.36;100.00
37610;BME280;23457;51.966;8.230;2023-03-19T00:49:43;100520.34;;;10.39;100.00
37610;BME280;23457;51.966;8.230;2023-03-19T00:52:09;100515.16;;;10.39;100.00
37610;BME280;23457;51.966;8.230;2023-03-19T00:54:38;100517.91;;;10.49;100.00
37610;BME280;23457;51.966;8.230;2023-03-19T00:57:06;100514.31;;;10.40;100.00
37610;BME280;23457;51.966;8.230;2023-03-19T00:59:33;100512.59;;;10.43;100.00
37610;BME280;23457;51.966;8.230;2023-03-19T01:02:01;100507.50;;;10.49;100.00
37610;BME280;23457;51.966;8.230;2023-03-19T01:04:27;100507.56;;;10.55;100.00
37610;BME280;23457;51.966;8.230;2023-03-19T01:06:54;100510.22;;;10.58;100.00
37610;BME280;23457;51.966;8.230;2023-03-19T01:09:21;100512.00;;;10.60;100.00
37610;BME280;23457;51.966;8.230;2023-03-19T01:11:48;100517.97;;;10.55;100.00
37610;BME280;23457;51.966;8.230;2023-03-19T01:14:16;100512.69;;;10.47;100.00
37610;BME280;23457;51.966;8.230;2023-03-19T01:16:44;100513.44;;;10.40;100.00
37610;BME280;23457;51.966;8.230;2023-03-19T01:19:11;100501.31;;;10.40;100.00
37610;BME280;23457;51.966;8.230;2023-03-19T01:21:38;100509.97;;;10.39;100.00
37610;BME280;23457;51.966;8.230;2023-03-19T01:24:05;100509.25;;;10.51;100.00
37610;BME280;23457;51.966;8.230;2023-03-19T01:26:31;100508.28;;;10.43;100.00
37610;BME280;23457;51.966;8.230;2023-03-19T01:29:11;100522.25;;;10.50;100.00
37610;BME280;23457;51.966;8.230;2023-03-19T01:31:38;100515.38;;;10.56;100.00
37610;BME280;23457;51.966;8.230;2023-03-19T01:34:23;100519.50;;;10.37;100.00
37610;BME280;23457;51.966;8.230;2023-03-19T01:36:54;100520.38;;;10.41;100.00
37610;BME280;23457;51.966;8.230;2023-03-19T01:39:40;100524.00;;;10.51;100.00
37610;BME280;23457;51.966;8.230;2023-03-19T01:42:11;100520.69;;;10.62;100.00
37610;BME280;23457;51.966;8.230;2023-03-19T01:44:47;100524.09;;;10.60;100.00
37610;BME280;23457;51.966;8.230;2023-03-19T01:47:40;100518.88;;;10.58;100.00
37610;BME280;23457;51.966;8.230;2023-03-19T01:50:25;100518.78;;;10.52;100.00
37610;BME280;23457;51.966;8.230;2023-03-19T01:53:25;100522.25;;;10.51;100.00
37610;BME280;23457;51.966;8.230;2023-03-19T01:56:22;100524.75;;;10.44;100.00
37610;BME280;23457;51.966;8.230;2023-03-19T01:58:59;100522.25;;;10.50;100.00
37610;BME280;23457;51.966;8.230;2023-03-19T02:02:02;100512.63;;;10.44;100.00
37610;BME280;23457;51.966;8.230;2023-03-19T02:04:32;100522.03;;;10.34;100.00
37610;BME280;23457;51.966;8.230;2023-03-19T02:07:01;100509.06;;;10.36;100.00
37610;BME280;23457;51.966;8.230;2023-03-19T02:09:29;100513.25;;;10.26;100.00
37610;BME280;23457;51.966;8.230;2023-03-19T02:11:59;100522.78;;;10.24;100.00
37610;BME280;23457;51.966;8.230;2023-03-19T02:14:27;100515.16;;;10.39;100.00
37610;BME280;23457;51.966;8.230;2023-03-19T02:16:54;100512.41;;;10.26;100.00
37610;BME280;23457;51.966;8.230;2023-03-19T02:22:31;100521.31;;;9.87;100.00
37610;BME280;23457;51.966;8.230;2023-03-19T02:25:02;100517.25;;;10.06;100.00
37610;BME280;23457;51.966;8.230;2023-03-19T02:27:33;100522.38;;;10.00;100.00
37610;BME280;23457;51.966;8.230;2023-03-19T02:30:06;100509.28;;;9.94;100.00
37610;BME280;23457;51.966;8.230;2023-03-19T02:32:42;100511.88;;;9.94;100.00
37610;BME280;23457;51.966;8.230;2023-03-19T02:35:10;100516.19;;;9.93;100.00
37610;BME280;23457;51.966;8.230;2023-03-19T02:37:37;100511.81;;;9.89;100.00
37610;BME280;23457;51.966;8.230;2023-03-19T02:40:08;100512.00;;;10.00;100.00
37610;BME280;23457;51.966;8.230;2023-03-19T02:42:37;100511.81;;;9.88;100.00
37610;BME280;23457;51.966;8.230;2023-03-19T02:45:04;100506.72;;;9.95;100.00
37610;BME280;23457;51.966;8.230;2023-03-19T02:47:30;100507.28;;;9.78;100.00
37610;BME280;23457;51.966;8.230;2023-03-19T02:49:57;100514.19;;;9.76;100.00
37610;BME280;23457;51.966;8.230;2023-03-19T02:52:24;100514.06;;;9.68;100.00
37610;BME280;23457;51.966;8.230;2023-03-19T02:54:51;100506.41;;;9.77;100.00
37610;BME280;23457;51.966;8.230;2023-03-19T02:57:17;100507.34;;;9.81;100.00
37610;BME280;23457;51.966;8.230;2023-03-19T02:59:44;100509.16;;;9.85;100.00
37610;BME280;23457;51.966;8.230;2023-03-19T03:02:11;100516.78;;;9.76;100.00
37610;BME280;23457;51.966;8.230;2023-03-19T03:04:38;100512.47;;;9.75;100.00
37610;BME280;23457;51.966;8.230;2023-03-19T03:07:05;100518.53;;;9.75;100.00
37610;BME280;23457;51.966;8.230;2023-03-19T03:09:33;100516.94;;;9.85;100.00
37610;BME280;23457;51.966;8.230;2023-03-19T03:11:59;100517.97;;;9.96;100.00
37610;BME280;23457;51.966;8.230;2023-03-19T03:14:26;100517.88;;;9.90;100.00
37610;BME280;23457;51.966;8.230;2023-03-19T03:16:54;100515.00;;;9.72;100.00
37610;BME280;23457;51.966;8.230;2023-03-19T03:19:21;100511.69;;;9.82;100.00
37610;BME280;23457;51.966;8.230;2023-03-19T03:21:48;100513.50;;;9.86;100.00
37610;BME280;23457;51.966;8.230;2023-03-19T03:24:15;100522.56;;;9.58;100.00
37610;BME280;23457;51.966;8.230;2023-03-19T03:26:41;100520.97;;;9.67;100.00
37610;BME280;23457;51.966;8.230;2023-03-19T03:29:09;100523.34;;;9.54;100.00
37610;BME280;23457;51.966;8.230;2023-03-19T03:31:36;100527.78;;;9.59;100.00
37610;BME280;23457;51.966;8.230;2023-03-19T03:34:03;100533.44;;;9.39;100.00
37610;BME280;23457;51.966;8.230;2023-03-19T03:36:30;100525.91;;;9.52;100.00
37610;BME280;23457;51.966;8.230;2023-03-19T03:38:56;100534.50;;;9.48;100.00
37610;BME280;23457;51.966;8.230;2023-03-19T03:41:24;100526.66;;;9.45;100.00
37610;BME280;23457;51.966;8.230;2023-03-19T03:43:51;100520.63;;;9.46;100.00
37610;BME280;23457;51.966;8.230;2023-03-19T03:46:18;100526.09;;;9.61;100.00
37610;BME280;23457;51.966;8.230;2023-03-19T03:48:47;100523.59;;;9.69;100.00
37610;BME280;23457;51.966;8.230;2023-03-19T03:51:15;100520.88;;;9.63;100.00
37610;BME280;23457;51.966;8.230;2023-03-19T03:53:41;100534.66;;;9.57;100.00
37610;BME280;23457;51.966;8.230;2023-03-19T03:56:10;100537.66;;;9.32;100.00
37610;BME280;23457;51.966;8.230;2023-03-19T03:58:36;100527.59;;;9.50;100.00
37610;BME280;23457;51.966;8.230;2023-03-19T04:01:03;100524.09;;;9.47;100.00
37610;BME280;23457;51.966;8.230;2023-03-19T04:03:31;100536.09;;;9.42;100.00
37610;BME280;23457;51.966;8.230;2023-03-19T04:05:58;100518.88;;;9.45;100.00
37610;BME280;23457;51.966;8.230;2023-03-19T04:08:25;100518.13;;;9.52;100.00
37610;BME280;23457;51.966;8.230;2023-03-19T04:10:52;100521.56;;;9.51;100.00
37610;BME280;23457;51.966;8.230;2023-03-19T04:13:18;100513.56;;;9.39;100.00
37610;BME280;23457;51.966;8.230;2023-03-19T04:15:45;100510.97;;;9.39;100.00
37610;BME280;23457;51.966;8.230;2023-03-19T04:18:12;100510.13;;;9.40;100.00
37610;BME280;23457;51.966;8.230;2023-03-19T04:20:40;100513.28;;;9.22;100.00
37610;BME280;23457;51.966;8.230;2023-03-19T04:23:06;100516.03;;;9.31;100.00
37610;BME280;23457;51.966;8.230;2023-03-19T04:25:33;100519.50;;;9.32;100.00
37610;BME280;23457;51.966;8.230;2023-03-19T04:28:00;100520.88;;;9.13;100.00
37610;BME280;23457;51.966;8.230;2023-03-19T04:30:27;100519.75;;;8.97;100.00
37610;BME280;23457;51.966;8.230;2023-03-19T04:32:54;100517.22;;;9.02;100.00
37610;BME280;23457;51.966;8.230;2023-03-19T04:35:22;100524.03;;;8.97;100.00
37610;BME280;23457;51.966;8.230;2023-03-19T04:37:48;100521.41;;;8.95;100.00
37610;BME280;23457;51.966;8.230;2023-03-19T04:40:17;100519.59;;;8.91;100.00
37610;BME280;23457;51.966;8.230;2023-03-19T04:42:45;100519.59;;;8.91;100.00
37610;BME280;23457;51.966;8.230;2023-03-19T04:45:31;100515.31;;;8.93;100.00
37610;BME280;23457;51.966;8.230;2023-03-19T04:47:59;100520.63;;;8.98;100.00
37610;BME280;23457;51.966;8.230;2023-03-19T04:50:26;100525.72;;;8.95;100.00
37610;BME280;23457;51.966;8.230;2023-03-19T04:52:53;100535.06;;;8.85;100.00
37610;BME280;23457;51.966;8.230;2023-03-19T04:55:21;100532.25;;;8.76;100.00
37610;BME280;23457;51.966;8.230;2023-03-19T04:57:57;100528.72;;;8.71;100.00
37610;BME280;23457;51.966;8.230;2023-03-19T05:00:27;100521.84;;;8.73;100.00
37610;BME280;23457;51.966;8.230;2023-03-19T05:02:53;100530.34;;;8.68;100.00
37610;BME280;23457;51.966;8.230;2023-03-19T05:05:20;100529.41;;;8.64;100.00
37610;BME280;23457;51.966;8.230;2023-03-19T05:07:48;100524.25;;;8.66;100.00
37610;BME280;23457;51.966;8.230;2023-03-19T05:10:15;100527.59;;;8.58;100.00
37610;BME280;23457;51.966;8.230;2023-03-19T05:12:42;100530.97;;;8.56;100.00
37610;BME280;23457;51.966;8.230;2023-03-19T05:15:10;100534.25;;;8.49;100.00
37610;BME280;23457;51.966;8.230;2023-03-19T05:17:44;100539.44;;;8.49;100.00
37610;BME280;23457;51.966;8.230;2023-03-19T05:20:19;100537.97;;;8.61;100.00
37610;BME280;23457;51.966;8.230;2023-03-19T05:22:52;100533.53;;;8.54;100.00
37610;BME280;23457;51.966;8.230;2023-03-19T05:25:26;100537.72;;;8.48;100.00
37610;BME280;23457;51.966;8.230;2023-03-19T05:27:53;100542.69;;;8.39;100.00
37610;BME280;23457;51.966;8.230;2023-03-19T05:30:22;100547.94;;;8.42;100.00
37610;BME280;23457;51.966;8.230;2023-03-19T05:33:15;100553.19;;;8.45;100.00
37610;BME280;23457;51.966;8.230;2023-03-19T05:35:44;100560.91;;;8.43;100.00
37610;BME280;23457;51.966;8.230;2023-03-19T05:38:27;100561.88;;;8.47;100.00
37610;BME280;23457;51.966;8.230;2023-03-19T05:41:05;100561.03;;;8.49;100.00
37610;BME280;23457;51.966;8.230;2023-03-19T05:43:43;100562.72;;;8.46;100.00
37610;BME280;23457;51.966;8.230;2023-03-19T05:46:18;100564.75;;;8.62;100.00
37610;BME280;23457;51.966;8.230;2023-03-19T05:48:45;100573.28;;;8.56;100.00
37610;BME280;23457;51.966;8.230;2023-03-19T05:51:11;100577.72;;;8.62;100.00
37610;BME280;23457;51.966;8.230;2023-03-19T05:53:45;100572.75;;;8.71;100.00
37610;BME280;23457;51.966;8.230;2023-03-19T05:56:32;100567.50;;;8.68;100.00
37610;BME280;23457;51.966;8.230;2023-03-19T05:59:17;100571.13;;;8.76;100.00
37610;BME280;23457;51.966;8.230;2023-03-19T06:01:52;100571.25;;;8.82;100.00
37610;BME280;23457;51.966;8.230;2023-03-19T06:04:19;100573.09;;;8.86;100.00
37610;BME280;23457;51.966;8.230;2023-03-19T06:06:46;100579.97;;;8.87;100.00
37610;BME280;23457;51.966;8.230;2023-03-19T06:09:14;100573.16;;;8.91;100.00
37610;BME280;23457;51.966;8.230;2023-03-19T06:11:44;100576.63;;;8.91;100.00
37610;BME280;23457;51.966;8.230;2023-03-19T06:14:43;100580.97;;;8.92;100.00
37610;BME280;23457;51.966;8.230;2023-03-19T06:17:28;100577.63;;;8.99;100.00
37610;BME280;23457;51.966;8.230;2023-03-19T06:20:00;100582.44;;;9.22;100.00
37610;BME280;23457;51.966;8.230;2023-03-19T06:22:27;100578.13;;;9.22;100.00
37610;BME280;23457;51.966;8.230;2023-03-19T06:24:54;100580.88;;;9.31;100.00
37610;BME280;23457;51.966;8.230;2023-03-19T06:27:21;100578.25;;;9.30;100.00
37610;BME280;23457;51.966;8.230;2023-03-19T06:29:49;100575.03;;;9.43;100.00
37610;BME280;23457;51.966;8.230;2023-03-19T06:32:22;100585.66;;;9.57;100.00
37610;BME280;23457;51.966;8.230;2023-03-19T06:34:50;100585.97;;;9.74;100.00
37610;BME280;23457;51.966;8.230;2023-03-19T06:37:18;100585.81;;;9.66;100.00
37610;BME280;23457;51.966;8.230;2023-03-19T06:39:45;100585.13;;;9.75;100.00
37610;BME280;23457;51.966;8.230;2023-03-19T06:42:11;100583.59;;;9.86;100.00
37610;BME280;23457;51.966;8.230;2023-03-19T06:44:38;100589.63;;;9.85;100.00
37610;BME280;23457;51.966;8.230;2023-03-19T06:47:05;100592.38;;;9.94;100.00
37610;BME280;23457;51.966;8.230;2023-03-19T06:49:35;100590.75;;;10.00;100.00
37610;BME280;23457;51.966;8.230;2023-03-19T06:52:02;100601.06;;;9.96;100.00
37610;BME280;23457;51.966;8.230;2023-03-19T06:54:29;100594.28;;;10.05;100.00
37610;BME280;23457;51.966;8.230;2023-03-19T06:56:56;100606.34;;;10.02;100.00
37610;BME280;23457;51.966;8.230;2023-03-19T06:59:23;100595.31;;;10.17;100.00
37610;BME280;23457;51.966;8.230;2023-03-19T07:01:51;100597.19;;;10.22;100.00
37610;BME280;23457;51.966;8.230;2023-03-19T07:04:18;100604.16;;;10.26;100.00
37610;BME280;23457;51.966;8.230;2023-03-19T07:06:47;100606.13;;;10.43;100.00
37610;BME280;23457;51.966;8.230;2023-03-19T07:09:14;100606.09;;;10.39;100.00
37610;BME280;23457;51.966;8.230;2023-03-19T07:11:41;100606.28;;;10.50;100.00
37610;BME280;23457;51.966;8.230;2023-03-19T07:14:07;100609.09;;;10.67;100.00
37610;BME280;23457;51.966;8.230;2023-03-19T07:16:34;100608.13;;;10.59;100.00
37610;BME280;23457;51.966;8.230;2023-03-19T07:19:01;100620.47;;;10.75;100.00
37610;BME280;23457;51.966;8.230;2023-03-19T07:21:27;100623.25;;;10.90;100.00
37610;BME280;23457;51.966;8.230;2023-03-19T07:23:54;100631.13;;;10.93;100.00
37610;BME280;23457;51.966;8.230;2023-03-19T07:26:21;100626.81;;;10.95;100.00
37610;BME280;23457;51.966;8.230;2023-03-19T07:28:47;100627.72;;;10.99;100.00
37610;BME280;23457;51.966;8.230;2023-03-19T07:31:14;100631.34;;;11.10;100.00
37610;BME280;23457;51.966;8.230;2023-03-19T07:33:42;100634.03;;;11.18;100.00
37610;BME280;23457;51.966;8.230;2023-03-19T07:36:09;100635.88;;;11.28;100.00
37610;BME280;23457;51.966;8.230;2023-03-19T07:38:35;100639.41;;;11.33;100.00
37610;BME280;23457;51.966;8.230;2023-03-19T07:41:02;100639.50;;;11.42;100.00
37610;BME280;23457;51.966;8.230;2023-03-19T07:43:29;100637.81;;;11.45;100.00
37610;BME280;23457;51.966;8.230;2023-03-19T07:45:57;100633.59;;;11.57;100.00
37610;BME280;23457;51.966;8.230;2023-03-19T07:48:24;100640.69;;;11.71;100.00
37610;BME280;23457;51.966;8.230;2023-03-19T07:50:50;100645.19;;;11.83;100.00
37610;BME280;23457;51.966;8.230;2023-03-19T07:53:18;100642.78;;;12.01;100.00
37610;BME280;23457;51.966;8.230;2023-03-19T07:55:46;100645.41;;;12.06;100.00
37610;BME280;23457;51.966;8.230;2023-03-19T07:58:13;100653.34;;;12.19;100.00
37610;BME280;23457;51.966;8.230;2023-03-19T08:00:40;100651.66;;;12.26;100.00
37610;BME280;23457;51.966;8.230;2023-03-19T08:03:07;100650.00;;;12.36;100.00
37610;BME280;23457;51.966;8.230;2023-03-19T08:05:33;100644.72;;;12.30;100.00
37610;BME280;23457;51.966;8.230;2023-03-19T08:08:00;100655.28;;;12.46;100.00
37610;BME280;23457;51.966;8.230;2023-03-19T08:10:27;100649.28;;;12.58;100.00
37610;BME280;23457;51.966;8.230;2023-03-19T08:12:53;100658.03;;;12.65;100.00
37610;BME280;23457;51.966;8.230;2023-03-19T08:15:20;100661.47;;;12.61;100.00
37610;BME280;23457;51.966;8.230;2023-03-19T08:17:47;100667.66;;;12.73;100.00
37610;BME280;23457;51.966;8.230;2023-03-19T08:20:15;100667.66;;;12.76;100.00
37610;BME280;23457;51.966;8.230;2023-03-19T08:22:42;100675.44;;;12.66;100.00
37610;BME280;23457;51.966;8.230;2023-03-19T08:25:09;100669.41;;;12.77;100.00
37610;BME280;23457;51.966;8.230;2023-03-19T08:27:39;100670.28;;;12.78;100.00
37610;BME280;23457;51.966;8.230;2023-03-19T08:30:08;100669.44;;;12.82;100.00
37610;BME280;23457;51.966;8.230;2023-03-19T08:32:35;100667.81;;;13.01;100.00
37610;BME280;23457;51.966;8.230;2023-03-19T08:35:03;100673.03;;;13.05;100.00
37610;BME280;23457;51.966;8.230;2023-03-19T08:37:30;100661.03;;;13.29;100.00
37610;BME280;23457;51.966;8.230;2023-03-19T08:39:56;100660.22;;;13.42;100.00
37610;BME280;23457;51.966;8.230;2023-03-19T08:42:23;100654.13;;;13.49;99.20
37610;BME280;23457;51.966;8.230;2023-03-19T08:44:50;100659.31;;;13.46;99.04
37610;BME280;23457;51.966;8.230;2023-03-19T08:47:16;100664.56;;;13.47;98.21
37610;BME280;23457;51.966;8.230;2023-03-19T08:49:43;100660.25;;;13.69;98.38
37610;BME280;23457;51.966;8.230;2023-03-19T08:52:09;100655.94;;;13.76;100.00
37610;BME280;23457;51.966;8.230;2023-03-19T08:54:36;100657.69;;;13.75;97.26
37610;BME280;23457;51.966;8.230;2023-03-19T08:57:03;100666.38;;;13.67;99.17
37610;BME280;23457;51.966;8.230;2023-03-19T08:59:29;100672.53;;;14.10;97.99
37610;BME280;23457;51.966;8.230;2023-03-19T09:01:59;100673.41;;;14.15;97.28
37610;BME280;23457;51.966;8.230;2023-03-19T09:04:27;100679.50;;;14.11;96.14
37610;BME280;23457;51.966;8.230;2023-03-19T09:06:54;100678.59;;;13.95;96.87
37610;BME280;23457;51.966;8.230;2023-03-19T09:09:22;100687.25;;;13.62;99.12
37610;BME280;23457;51.966;8.230;2023-03-19T09:11:49;100686.31;;;13.42;99.20
37610;BME280;23457;51.966;8.230;2023-03-19T09:14:16;100694.19;;;13.61;97.69
37610;BME280;23457;51.966;8.230;2023-03-19T09:16:45;100696.81;;;13.63;97.11
37610;BME280;23457;51.966;8.230;2023-03-19T09:19:12;100690.72;;;13.55;99.01
37610;BME280;23457;51.966;8.230;2023-03-19T09:21:39;100698.63;;;13.78;98.97
37610;BME280;23457;51.966;8.230;2023-03-19T09:24:05;100696.91;;;13.96;98.40
37610;BME280;23457;51.966;8.230;2023-03-19T09:26:32;100691.72;;;14.24;96.26
37610;BME280;23457;51.966;8.230;2023-03-19T09:28:59;100694.34;;;14.27;95.04
37610;BME280;23457;51.966;8.230;2023-03-19T09:31:28;100695.19;;;14.32;93.87
37610;BME280;23457;51.966;8.230;2023-03-19T09:33:55;100702.19;;;14.18;94.86
37610;BME280;23457;51.966;8.230;2023-03-19T09:36:22;100699.53;;;14.13;95.41
37610;BME280;23457;51.966;8.230;2023-03-19T09:38:48;100705.69;;;14.50;94.30
37610;BME280;23457;51.966;8.230;2023-03-19T09:44:11;100714.38;;;14.16;94.31
37610;BME280;23457;51.966;8.230;2023-03-19T09:49:47;100703.06;;;14.58;92.90
37610;BME280;23457;51.966;8.230;2023-03-19T09:52:40;100703.94;;;14.66;90.87
37610;BME280;23457;51.966;8.230;2023-03-19T09:55:27;100703.94;;;14.77;90.25
37610;BME280;23457;51.966;8.230;2023-03-19T09:57:57;100710.91;;;14.81;89.79
37610;BME280;23457;51.966;8.230;2023-03-19T10:00:27;100714.38;;;14.92;89.15
37610;BME280;23457;51.966;8.230;2023-03-19T10:17:06;100707.31;;;15.27;88.81
37610;BME280;23457;51.966;8.230;2023-03-19T10:19:48;100705.63;;;15.00;88.21
37610;BME280;23457;51.966;8.230;2023-03-19T10:22:33;100717.00;;;14.92;89.65
37610;BME280;23457;51.966;8.230;2023-03-19T10:25:01;100708.25;;;15.03;88.59
37610;BME280;23457;51.966;8.230;2023-03-19T10:27:28;100717.88;;;14.76;89.86
37610;BME280;23457;51.966;8.230;2023-03-19T10:29:55;100728.34;;;14.85;90.96
37610;BME280;23457;51.966;8.230;2023-03-19T10:32:41;100724.88;;;14.64;92.55
37610;BME280;23457;51.966;8.230;2023-03-19T10:35:18;100727.50;;;14.42;93.59
37610;BME280;23457;51.966;8.230;2023-03-19T10:37:48;100725.75;;;14.41;94.66
37610;BME280;23457;51.966;8.230;2023-03-19T10:40:25;100724.88;;;14.80;93.45
37610;BME280;23457;51.966;8.230;2023-03-19T10:43:24;100726.59;;;14.84;92.70
37610;BME280;23457;51.966;8.230;2023-03-19T10:45:52;100738.81;;;14.63;92.68
37610;BME280;23457;51.966;8.230;2023-03-19T10:48:24;100729.22;;;14.58;94.63
37610;BME280;23457;51.966;8.230;2023-03-19T10:51:02;100736.13;;;15.21;93.17
37610;BME280;23457;51.966;8.230;2023-03-19T10:53:32;100732.72;;;14.93;90.98
37610;BME280;23457;51.966;8.230;2023-03-19T10:56:09;100733.56;;;14.92;91.96
37610;BME280;23457;51.966;8.230;2023-03-19T10:59:01;100731.81;;;15.02;91.52
37610;BME280;23457;51.966;8.230;2023-03-19T11:01:33;100736.03;;;15.59;89.65
37610;BME280;23457;51.966;8.230;2023-03-19T11:04:11;100729.84;;;15.74;88.57
37610;BME280;23457;51.966;8.230;2023-03-19T11:06:38;100735.94;;;15.76;88.65
37610;BME280;23457;51.966;8.230;2023-03-19T11:11:42;100724.28;;;16.26;85.65
37610;BME280;23457;51.966;8.230;2023-03-19T11:14:18;100723.06;;;16.74;84.95
37610;BME280;23457;51.966;8.230;2023-03-19T11:17:04;100732.75;;;16.67;81.91
37610;BME280;23457;51.966;8.230;2023-03-19T11:19:38;100737.22;;;16.53;82.81
37610;BME280;23457;51.966;8.230;2023-03-19T11:24:38;100744.03;;;15.00;89.58
37610;BME280;23457;51.966;8.230;2023-03-19T11:27:08;100739.50;;;15.58;90.13
37610;BME280;23457;51.966;8.230;2023-03-19T11:29:39;100738.63;;;15.70;87.92
37610;BME280;23457;51.966;8.230;2023-03-19T11:37:58;100738.34;;;16.19;85.19
37610;BME280;23457;51.966;8.230;2023-03-19T11:40:42;100741.75;;;16.30;85.73
37610;BME280;23457;51.966;8.230;2023-03-19T11:49:35;100741.59;;;16.51;84.51
37610;BME280;23457;51.966;8.230;2023-03-19T11:52:24;100738.63;;;15.64;87.04
37610;BME280;23457;51.966;8.230;2023-03-19T11:55:16;100736.41;;;16.45;84.60
37610;BME280;23457;51.966;8.230;2023-03-19T12:00:50;100735.06;;;15.77;83.33
37610;BME280;23457;51.966;8.230;2023-03-19T12:09:22;100735.38;;;16.60;84.04
37610;BME280;23457;51.966;8.230;2023-03-19T12:12:20;100738.19;;;16.40;82.58
37610;BME280;23457;51.966;8.230;2023-03-19T12:15:13;100734.41;;;16.74;82.41
37610;BME280;23457;51.966;8.230;2023-03-19T12:17:50;100739.84;;;16.50;80.75
37610;BME280;23457;51.966;8.230;2023-03-19T12:20:33;100733.38;;;16.94;81.97
37610;BME280;23457;51.966;8.230;2023-03-19T12:26:15;100740.63;;;16.66;80.32
37610;BME280;23457;51.966;8.230;2023-03-19T12:29:01;100727.16;;;17.04;79.13
37610;BME280;23457;51.966;8.230;2023-03-19T12:31:41;100732.44;;;16.98;78.15
37610;BME280;23457;51.966;8.230;2023-03-19T12:34:39;100733.63;;;16.60;78.45
37610;BME280;23457;51.966;8.230;2023-03-19T12:42:40;100724.09;;;16.55;79.49
37610;BME280;23457;51.966;8.230;2023-03-19T12:48:01;100729.44;;;16.36;78.06
37610;BME280;23457;51.966;8.230;2023-03-19T12:50:30;100716.66;;;15.91;81.52
37610;BME280;23457;51.966;8.230;2023-03-19T12:53:04;100721.53;;;16.45;79.21
37610;BME280;23457;51.966;8.230;2023-03-19T12:55:39;100722.13;;;16.81;78.95
37610;BME280;23457;51.966;8.230;2023-03-19T12:58:42;100718.78;;;16.59;78.14
37610;BME280;23457;51.966;8.230;2023-03-19T13:01:15;100715.06;;;16.84;78.94
37610;BME280;23457;51.966;8.230;2023-03-19T13:06:27;100722.19;;;16.73;79.29
37610;BME280;23457;51.966;8.230;2023-03-19T13:11:49;100724.28;;;16.29;80.99
37610;BME280;23457;51.966;8.230;2023-03-19T13:19:57;100718.78;;;16.59;78.75
37610;BME280;23457;51.966;8.230;2023-03-19T13:22:30;100716.88;;;16.82;78.26
37610;BME280;23457;51.966;8.230;2023-03-19T13:24:59;100717.56;;;17.00;77.24
37610;BME280;23457;51.966;8.230;2023-03-19T13:27:30;100720.50;;;16.68;78.28
37610;BME280;23457;51.966;8.230;2023-03-19T13:32:48;100710.91;;;17.46;73.60
37610;BME280;23457;51.966;8.230;2023-03-19T13:35:39;100711.53;;;17.70;74.33
37610;BME280;23457;51.966;8.230;2023-03-19T13:40:56;100701.63;;;17.16;73.99
37610;BME280;23457;51.966;8.230;2023-03-19T13:46:30;100703.50;;;17.05;71.85
37610;BME280;23457;51.966;8.230;2023-03-19T13:49:28;100700.66;;;17.25;70.88
37610;BME280;23457;51.966;8.230;2023-03-19T13:51:58;100696.75;;;16.83;72.58
37610;BME280;23457;51.966;8.230;2023-03-19T13:54:34;100699.22;;;16.97;72.67
37610;BME280;23457;51.966;8.230;2023-03-19T13:57:17;100703.09;;;16.53;73.69
37610;BME280;23457;51.966;8.230;2023-03-19T13:59:46;100697.56;;;16.87;75.07
37610;BME280;23457;51.966;8.230;2023-03-19T14:05:14;100699.53;;;16.60;76.95
37610;BME280;23457;51.966;8.230;2023-03-19T14:07:47;100703.53;;;17.01;73.49
37610;BME280;23457;51.966;8.230;2023-03-19T14:10:26;100698.44;;;16.87;73.91
37610;BME280;23457;51.966;8.230;2023-03-19T14:13:01;100701.91;;;16.92;72.27
37610;BME280;23457;51.966;8.230;2023-03-19T14:15:29;100698.53;;;16.76;72.18
37610;BME280;23457;51.966;8.230;2023-03-19T14:18:03;100698.63;;;16.67;72.41
37610;BME280;23457;51.966;8.230;2023-03-19T14:20:43;100703.09;;;16.56;72.67
37610;BME280;23457;51.966;8.230;2023-03-19T14:23:22;100702.75;;;16.93;71.72
37610;BME280;23457;51.966;8.230;2023-03-19T14:26:15;100706.50;;;16.61;71.98
37610;BME280;23457;51.966;8.230;2023-03-19T14:29:14;100697.50;;;16.93;71.50
37610;BME280;23457;51.966;8.230;2023-03-19T14:31:59;100703.31;;;16.27;73.95